createdAt,value
2023-03-16T00:00:22.623Z,88.38
2023-03-16T00:02:50.173Z,88.25
2023-03-16T00:05:17.951Z,88.26
2023-03-16T00:07:45.383Z,88.13
2023-03-16T00:10:13.878Z,88.26
2023-03-16T00:12:43.966Z,88.84
2023-03-16T00:15:14.256Z,89.01
2023-03-16T00:17:41.730Z,88.92
2023-03-16T00:20:10.279Z,89.60
2023-03-16T00:22:37.647Z,89.78
2023-03-16T00:25:05.630Z,90.00
2023-03-16T00:27:33.026Z,90.89
2023-03-16T00:30:03.925Z,91.09
2023-03-16T00:32:34.807Z,91.29
2023-03-16T00:35:04.461Z,91.67
2023-03-16T00:37:37.502Z,91.63
2023-03-16T00:40:08.205Z,91.48
2023-03-16T00:42:35.710Z,91.61
2023-03-16T00:45:03.718Z,92.26
2023-03-16T00:47:35.164Z,92.50
2023-03-16T00:50:03.380Z,92.58
2023-03-16T00:52:31.229Z,92.79
2023-03-16T00:54:59.705Z,92.66
2023-03-16T00:57:29.241Z,93.06
2023-03-16T00:59:56.900Z,93.29
2023-03-16T01:02:25.175Z,93.22
2023-03-16T01:04:55.039Z,93.11
2023-03-16T01:07:22.972Z,93.30
2023-03-16T01:09:51.694Z,92.99
2023-03-16T01:12:20.394Z,93.71
2023-03-16T01:14:48.801Z,93.85
2023-03-16T01:17:18.144Z,94.31
2023-03-16T01:19:46.385Z,94.50
2023-03-16T01:22:15.084Z,94.63
2023-03-16T01:24:45.882Z,94.70
2023-03-16T01:27:14.281Z,94.80
2023-03-16T01:29:44.113Z,94.70
2023-03-16T01:32:12.495Z,94.74
2023-03-16T01:34:40.369Z,94.92
2023-03-16T01:37:08.385Z,94.70
2023-03-16T01:39:58.921Z,94.79
2023-03-16T01:42:26.414Z,94.95
2023-03-16T01:45:06.024Z,94.98
2023-03-16T01:47:38.700Z,95.01
2023-03-16T01:50:10.787Z,95.27
2023-03-16T01:52:40.689Z,95.16
2023-03-16T01:55:14.327Z,95.11
2023-03-16T01:57:45.686Z,95.20
2023-03-16T02:00:20.276Z,95.32
2023-03-16T02:03:10.376Z,95.42
2023-03-16T02:05:54.532Z,95.46
2023-03-16T02:08:25.154Z,95.47
2023-03-16T02:10:55.065Z,95.72
2023-03-16T02:13:25.345Z,95.87
2023-03-16T02:15:53.969Z,95.92
2023-03-16T02:18:23.601Z,95.83
2023-03-16T02:21:18.874Z,96.05
2023-03-16T02:23:47.862Z,96.05
2023-03-16T02:26:31.410Z,95.97
2023-03-16T02:29:18.688Z,95.48
2023-03-16T02:31:48.287Z,95.21
2023-03-16T02:34:18.387Z,95.06
2023-03-16T02:36:49.116Z,94.85
2023-03-16T02:39:19.610Z,94.82
2023-03-16T02:41:47.853Z,94.85
2023-03-16T02:44:29.253Z,94.86
2023-03-16T02:47:00.425Z,94.25
2023-03-16T02:49:37.855Z,94.41
2023-03-16T02:52:06.779Z,94.12
2023-03-16T02:54:34.232Z,94.05
2023-03-16T02:57:02.135Z,93.29
2023-03-16T02:59:31.767Z,92.49
2023-03-16T03:01:59.366Z,92.62
2023-03-16T03:04:26.765Z,92.48
2023-03-16T03:06:54.184Z,92.11
2023-03-16T03:09:21.570Z,92.33
2023-03-16T03:11:53.736Z,92.55
2023-03-16T03:14:22.168Z,92.64
2023-03-16T03:16:52.737Z,92.59
2023-03-16T03:19:20.359Z,92.52
2023-03-16T03:21:47.974Z,92.99
2023-03-16T03:24:15.364Z,92.95
2023-03-16T03:26:45.679Z,93.04
2023-03-16T03:29:19.967Z,93.00
2023-03-16T03:31:47.853Z,93.07
2023-03-16T03:34:15.242Z,93.10
2023-03-16T03:36:42.926Z,93.16
2023-03-16T03:39:10.444Z,92.83
2023-03-16T03:41:38.072Z,93.30
2023-03-16T03:44:07.490Z,93.30
2023-03-16T03:46:36.473Z,93.57
2023-03-16T03:49:06.621Z,93.33
2023-03-16T03:51:36.035Z,93.58
2023-03-16T03:54:09.690Z,93.90
2023-03-16T03:56:48.565Z,94.00
2023-03-16T03:59:17.261Z,93.91
2023-03-16T04:02:11.641Z,94.19
2023-03-16T04:04:45.046Z,93.98
2023-03-16T04:07:14.233Z,94.22
2023-03-16T04:09:43.094Z,94.08
2023-03-16T04:12:18.897Z,94.51
2023-03-16T04:14:46.907Z,94.60
2023-03-16T04:17:15.395Z,94.56
2023-03-16T04:19:44.198Z,94.62
2023-03-16T04:22:15.240Z,94.76
2023-03-16T04:24:43.594Z,95.01
2023-03-16T04:27:13.558Z,95.10
2023-03-16T04:29:41.056Z,95.25
2023-03-16T04:32:09.498Z,95.47
2023-03-16T04:34:38.876Z,95.71
2023-03-16T04:37:07.112Z,95.87
2023-03-16T04:39:37.889Z,95.63
2023-03-16T04:42:06.884Z,95.55
2023-03-16T04:44:34.300Z,95.56
2023-03-16T04:47:01.838Z,95.51
2023-03-16T04:49:36.784Z,95.38
2023-03-16T04:52:05.294Z,95.48
2023-03-16T04:54:33.731Z,95.38
2023-03-16T04:57:05.398Z,95.12
2023-03-16T04:59:39.056Z,95.35
2023-03-16T05:02:17.360Z,95.17
2023-03-16T05:04:44.838Z,94.90
2023-03-16T05:07:13.241Z,94.76
2023-03-16T05:09:44.489Z,94.56
2023-03-16T05:12:12.175Z,94.47
2023-03-16T05:14:40.202Z,94.34
2023-03-16T05:17:28.241Z,94.50
2023-03-16T05:19:56.009Z,94.39
2023-03-16T05:22:23.901Z,94.69
2023-03-16T05:25:08.618Z,94.51
2023-03-16T05:27:36.190Z,94.43
2023-03-16T05:30:06.571Z,94.39
2023-03-16T05:32:35.588Z,94.44
2023-03-16T05:35:03.621Z,94.31
2023-03-16T05:37:32.407Z,93.62
2023-03-16T05:39:59.780Z,93.57
2023-03-16T05:42:30.139Z,92.47
2023-03-16T05:45:02.016Z,91.38
2023-03-16T05:47:44.144Z,90.01
2023-03-16T05:50:13.254Z,89.57
2023-03-16T05:52:44.998Z,87.82
2023-03-16T05:55:19.082Z,86.57
2023-03-16T05:57:52.089Z,85.54
2023-03-16T06:00:20.809Z,84.78
2023-03-16T06:02:56.304Z,80.76
2023-03-16T06:05:29.885Z,79.30
2023-03-16T06:07:57.758Z,78.72
2023-03-16T06:10:27.141Z,77.51
2023-03-16T06:12:54.665Z,72.56
2023-03-16T06:15:25.590Z,71.93
2023-03-16T06:17:56.167Z,70.13
2023-03-16T06:20:23.573Z,67.30
2023-03-16T06:22:51.216Z,65.38
2023-03-16T06:25:18.575Z,67.26
2023-03-16T06:27:49.618Z,62.29
2023-03-16T06:30:18.648Z,58.84
2023-03-16T06:32:46.232Z,60.33
2023-03-16T06:35:15.247Z,59.42
2023-03-16T06:37:49.414Z,55.28
2023-03-16T06:40:34.789Z,54.81
2023-03-16T06:43:02.450Z,53.46
2023-03-16T06:45:30.384Z,50.78
2023-03-16T06:47:57.829Z,49.33
2023-03-16T06:50:25.705Z,49.88
2023-03-16T06:52:53.174Z,49.94
2023-03-16T06:55:20.424Z,47.33
2023-03-16T06:57:49.375Z,45.96
2023-03-16T07:00:19.503Z,44.26
2023-03-16T07:02:46.878Z,44.85
2023-03-16T07:05:15.159Z,47.06
2023-03-16T07:07:44.087Z,47.57
2023-03-16T07:10:17.891Z,48.02
2023-03-16T07:12:45.375Z,47.08
2023-03-16T07:15:13.537Z,46.43
2023-03-16T07:17:41.192Z,47.34
2023-03-16T07:20:11.272Z,45.72
2023-03-16T07:22:40.326Z,47.27
2023-03-16T07:25:11.802Z,47.34
2023-03-16T07:27:45.959Z,47.55
2023-03-16T07:30:16.077Z,47.02
2023-03-16T07:32:46.322Z,46.71
2023-03-16T07:35:14.864Z,46.91
2023-03-16T07:37:42.428Z,46.49
2023-03-16T07:40:10.836Z,47.95
2023-03-16T07:42:38.355Z,45.85
2023-03-16T07:45:12.530Z,47.00
2023-03-16T07:47:40.456Z,47.89
2023-03-16T07:50:19.602Z,47.98
2023-03-16T07:52:50.180Z,47.95
2023-03-16T07:55:17.584Z,46.97
2023-03-16T07:57:48.493Z,46.38
2023-03-16T08:00:24.342Z,46.38
2023-03-16T08:02:52.917Z,47.76
2023-03-16T08:05:20.176Z,49.00
2023-03-16T08:07:51.982Z,50.00
2023-03-16T08:10:24.040Z,52.82
2023-03-16T08:13:06.725Z,58.64
2023-03-16T08:15:35.654Z,61.88
2023-03-16T08:18:19.145Z,62.47
2023-03-16T08:20:46.675Z,63.71
2023-03-16T08:23:15.930Z,67.02
2023-03-16T08:25:43.492Z,69.51
2023-03-16T08:28:16.226Z,71.00
2023-03-16T08:30:52.549Z,71.37
2023-03-16T08:33:55.297Z,72.51
2023-03-16T08:36:29.415Z,72.72
2023-03-16T08:39:06.695Z,72.93
2023-03-16T08:41:44.227Z,72.79
2023-03-16T08:44:24.261Z,71.50
2023-03-16T08:46:52.177Z,70.75
2023-03-16T08:49:21.253Z,69.55
2023-03-16T08:51:56.332Z,68.58
2023-03-16T08:54:24.039Z,66.93
2023-03-16T08:56:52.144Z,66.98
2023-03-16T08:59:29.082Z,67.92
2023-03-16T09:01:56.890Z,66.20
2023-03-16T09:04:24.361Z,66.76
2023-03-16T09:07:05.952Z,66.55
2023-03-16T09:09:35.835Z,65.96
2023-03-16T09:12:04.642Z,64.18
2023-03-16T09:14:32.095Z,63.60
2023-03-16T09:16:59.831Z,62.22
2023-03-16T09:19:28.014Z,63.97
2023-03-16T09:21:58.345Z,63.48
2023-03-16T09:24:26.184Z,63.44
2023-03-16T09:26:53.415Z,61.89
2023-03-16T09:29:21.666Z,58.64
2023-03-16T09:31:48.862Z,53.73
2023-03-16T09:34:16.714Z,49.69
2023-03-16T09:36:43.933Z,47.16
2023-03-16T09:39:12.133Z,45.46
2023-03-16T09:41:54.262Z,43.02
2023-03-16T09:44:28.400Z,40.40
2023-03-16T09:46:59.818Z,40.87
2023-03-16T09:49:34.211Z,42.63
2023-03-16T09:52:26.110Z,41.98
2023-03-16T09:55:02.907Z,40.76
2023-03-16T09:57:40.920Z,40.87
2023-03-16T10:00:23.252Z,40.74
2023-03-16T10:03:08.613Z,38.77
2023-03-16T10:05:37.551Z,38.07
2023-03-16T10:08:10.847Z,41.31
2023-03-16T10:10:47.799Z,43.49
2023-03-16T10:13:48.136Z,41.83
2023-03-16T10:16:28.885Z,43.20
2023-03-16T10:19:08.513Z,44.79
2023-03-16T10:21:40.274Z,48.08
2023-03-16T10:24:38.716Z,47.64
2023-03-16T10:27:13.179Z,48.61
2023-03-16T10:29:40.666Z,48.49
2023-03-16T10:32:16.863Z,50.70
2023-03-16T10:34:49.026Z,52.44
2023-03-16T10:37:16.165Z,56.28
2023-03-16T10:39:43.405Z,58.15
2023-03-16T10:42:20.365Z,58.55
2023-03-16T10:44:47.996Z,57.65
2023-03-16T10:47:24.792Z,58.43
2023-03-16T10:49:52.223Z,58.95
2023-03-16T10:52:25.096Z,60.94
2023-03-16T10:55:00.005Z,60.97
2023-03-16T10:57:41.998Z,62.48
2023-03-16T11:00:41.865Z,63.35
2023-03-16T11:03:32.667Z,63.57
2023-03-16T11:06:02.835Z,65.99
2023-03-16T11:08:35.947Z,67.19
2023-03-16T11:11:39.944Z,67.08
2023-03-16T11:14:14.109Z,68.65
2023-03-16T11:16:54.027Z,69.05
2023-03-16T11:19:29.470Z,67.99
2023-03-16T11:21:59.451Z,69.54
2023-03-16T11:24:44.660Z,68.19
2023-03-16T11:27:50.535Z,69.75
2023-03-16T11:30:26.217Z,69.59
2023-03-16T11:32:54.524Z,67.53
2023-03-16T11:35:31.248Z,68.49
2023-03-16T11:38:19.381Z,68.56
2023-03-16T11:41:03.376Z,69.78
2023-03-16T11:43:42.679Z,69.93
2023-03-16T11:46:28.982Z,70.52
2023-03-16T11:49:11.148Z,70.15
2023-03-16T11:52:08.611Z,68.94
2023-03-16T11:54:52.092Z,68.03
2023-03-16T11:57:53.289Z,67.57
2023-03-16T12:00:41.850Z,67.93
2023-03-16T12:03:45.155Z,67.30
2023-03-16T12:06:24.556Z,67.62
2023-03-16T12:09:13.789Z,67.86
2023-03-16T12:11:52.280Z,66.66
2023-03-16T12:14:50.488Z,67.45
2023-03-16T12:17:23.452Z,67.79
2023-03-16T12:19:59.601Z,68.15
2023-03-16T12:22:42.367Z,67.22
2023-03-16T12:25:17.697Z,67.59
2023-03-16T12:27:48.243Z,66.69
2023-03-16T12:30:55.383Z,65.56
2023-03-16T12:33:28.248Z,64.91
2023-03-16T12:36:22.834Z,63.19
2023-03-16T12:38:55.304Z,63.29
2023-03-16T12:41:41.215Z,63.36
2023-03-16T12:44:14.527Z,61.42
2023-03-16T12:47:03.606Z,61.90
2023-03-16T12:49:35.000Z,61.41
2023-03-16T12:52:13.191Z,63.86
2023-03-16T12:54:55.583Z,63.71
2023-03-16T12:57:27.439Z,63.67
2023-03-16T13:00:01.186Z,63.51
2023-03-16T13:02:37.410Z,61.70
2023-03-16T13:05:16.924Z,62.06
2023-03-16T13:07:50.196Z,60.54
2023-03-16T13:10:21.515Z,60.24
2023-03-16T13:12:48.903Z,60.21
2023-03-16T13:15:23.311Z,60.51
2023-03-16T13:18:10.596Z,60.90
2023-03-16T13:20:50.026Z,59.69
2023-03-16T13:23:30.341Z,59.48
2023-03-16T13:26:18.017Z,61.01
2023-03-16T13:28:50.916Z,59.89
2023-03-16T13:31:51.395Z,59.56
2023-03-16T13:34:52.211Z,58.60
2023-03-16T13:37:22.088Z,58.95
2023-03-16T13:39:58.777Z,60.05
2023-03-16T13:42:29.943Z,60.21
2023-03-16T13:44:58.191Z,60.45
2023-03-16T13:47:28.610Z,60.28
2023-03-16T13:50:01.406Z,59.07
2023-03-16T13:52:36.007Z,57.87
2023-03-16T13:55:16.443Z,57.76
2023-03-16T13:57:46.041Z,57.29
2023-03-16T14:00:23.574Z,57.39
2023-03-16T14:02:57.027Z,57.82
2023-03-16T14:05:30.759Z,57.63
2023-03-16T14:08:00.962Z,56.56
2023-03-16T14:10:33.872Z,53.89
2023-03-16T14:13:38.609Z,54.99
2023-03-16T14:16:15.625Z,55.93
2023-03-16T14:18:49.257Z,56.25
2023-03-16T14:21:27.869Z,56.61
2023-03-16T14:23:59.590Z,55.43
2023-03-16T14:26:27.313Z,55.58
2023-03-16T14:29:27.377Z,55.62
2023-03-16T14:31:55.737Z,54.61
2023-03-16T14:34:39.963Z,54.64
2023-03-16T14:37:11.567Z,53.89
2023-03-16T14:39:40.756Z,54.00
2023-03-16T14:42:15.528Z,53.51
2023-03-16T14:44:43.002Z,52.20
2023-03-16T14:47:25.962Z,52.26
2023-03-16T14:49:53.550Z,53.57
2023-03-16T14:52:23.520Z,54.76
2023-03-16T14:54:51.722Z,54.48
2023-03-16T14:57:19.964Z,54.46
2023-03-16T14:59:47.589Z,53.76
2023-03-16T15:02:22.642Z,53.53
2023-03-16T15:04:50.396Z,52.96
2023-03-16T15:07:28.778Z,53.49
2023-03-16T15:10:15.580Z,52.93
2023-03-16T15:12:54.130Z,52.46
2023-03-16T15:15:24.174Z,52.12
2023-03-16T15:17:53.472Z,52.11
2023-03-16T15:20:24.370Z,53.05
2023-03-16T15:22:53.272Z,53.49
2023-03-16T15:25:23.583Z,53.33
2023-03-16T15:27:51.906Z,53.69
2023-03-16T15:30:27.678Z,51.95
2023-03-16T15:32:55.022Z,51.34
2023-03-16T15:35:22.583Z,51.77
2023-03-16T15:37:50.012Z,52.19
2023-03-16T15:40:19.752Z,52.04
2023-03-16T15:42:50.687Z,52.21
2023-03-16T15:45:21.654Z,52.14
2023-03-16T15:47:50.930Z,52.14
2023-03-16T15:50:22.050Z,51.68
2023-03-16T15:53:00.511Z,50.98
2023-03-16T15:55:42.987Z,52.13
2023-03-16T15:58:24.703Z,52.44
2023-03-16T16:00:57.458Z,52.49
2023-03-16T16:03:26.228Z,51.95
2023-03-16T16:05:54.532Z,52.64
2023-03-16T16:08:21.843Z,52.89
2023-03-16T16:10:50.694Z,53.25
2023-03-16T16:13:23.368Z,53.23
2023-03-16T16:15:54.311Z,53.35
2023-03-16T16:18:28.927Z,53.86
2023-03-16T16:20:57.133Z,54.56
2023-03-16T16:23:26.053Z,54.75
2023-03-16T16:25:59.776Z,54.89
2023-03-16T16:28:31.035Z,55.60
2023-03-16T16:31:00.132Z,55.70
2023-03-16T16:33:33.763Z,55.81
2023-03-16T16:36:03.913Z,55.68
2023-03-16T16:38:32.611Z,55.48
2023-03-16T16:41:03.178Z,55.50
2023-03-16T16:43:47.206Z,55.35
2023-03-16T16:46:17.894Z,55.56
2023-03-16T16:48:50.506Z,55.30
2023-03-16T16:51:23.608Z,55.63
2023-03-16T16:53:54.955Z,55.92
2023-03-16T16:56:32.175Z,56.02
2023-03-16T16:59:07.470Z,56.41
2023-03-16T17:01:35.409Z,56.96
2023-03-16T17:04:03.342Z,57.29
2023-03-16T17:06:30.790Z,57.62
2023-03-16T17:08:58.310Z,57.64
2023-03-16T17:11:31.200Z,57.58
2023-03-16T17:14:00.926Z,57.91
2023-03-16T17:16:32.476Z,57.82
2023-03-16T17:19:00.348Z,58.08
2023-03-16T17:21:30.187Z,58.26
2023-03-16T17:23:58.695Z,58.29
2023-03-16T17:26:30.837Z,58.79
2023-03-16T17:29:03.073Z,58.81
2023-03-16T17:31:39.335Z,59.07
2023-03-16T17:34:25.742Z,59.59
2023-03-16T17:36:53.976Z,59.73
2023-03-16T17:39:23.758Z,59.83
2023-03-16T17:42:00.120Z,60.15
2023-03-16T17:44:32.789Z,60.58
2023-03-16T17:47:00.006Z,60.82
2023-03-16T17:49:28.889Z,60.96
2023-03-16T17:51:56.324Z,61.64
2023-03-16T17:54:23.582Z,61.78
2023-03-16T17:56:54.435Z,62.08
2023-03-16T17:59:23.283Z,62.21
2023-03-16T18:01:51.016Z,62.46
2023-03-16T18:04:21.433Z,62.41
2023-03-16T18:06:49.470Z,62.55
2023-03-16T18:09:18.176Z,62.80
2023-03-16T18:11:48.747Z,63.08
2023-03-16T18:14:35.385Z,63.12
2023-03-16T18:17:33.752Z,63.30
2023-03-16T18:20:00.940Z,63.64
2023-03-16T18:22:29.190Z,63.87
2023-03-16T18:24:56.490Z,63.98
2023-03-16T18:27:24.679Z,64.25
2023-03-16T18:29:51.829Z,64.59
2023-03-16T18:32:29.586Z,64.99
2023-03-16T18:34:57.576Z,65.05
2023-03-16T18:37:28.225Z,65.45
2023-03-16T18:39:55.393Z,65.54
2023-03-16T18:42:29.069Z,65.66
2023-03-16T18:44:56.377Z,65.63
2023-03-16T18:47:31.667Z,66.07
2023-03-16T18:49:59.749Z,66.03
2023-03-16T18:52:29.715Z,66.16
2023-03-16T18:54:58.613Z,66.55
2023-03-16T18:57:28.406Z,66.58
2023-03-16T18:59:55.701Z,66.86
2023-03-16T19:02:37.697Z,67.05
2023-03-16T19:05:15.926Z,66.97
2023-03-16T19:07:46.498Z,67.10
2023-03-16T19:10:27.866Z,67.13
2023-03-16T19:12:55.794Z,66.97
2023-03-16T19:15:26.302Z,67.43
2023-03-16T19:17:53.990Z,67.28
2023-03-16T19:20:27.503Z,67.54
2023-03-16T19:23:09.000Z,67.66
2023-03-16T19:25:38.696Z,67.83
2023-03-16T19:28:07.920Z,68.00
2023-03-16T19:30:36.098Z,68.09
2023-03-16T19:33:03.573Z,68.26
2023-03-16T19:35:48.766Z,68.40
2023-03-16T19:38:18.931Z,68.72
2023-03-16T19:40:57.407Z,68.92
2023-03-16T19:43:27.288Z,68.80
2023-03-16T19:45:56.866Z,68.88
2023-03-16T19:48:45.293Z,69.16
2023-03-16T19:51:17.575Z,69.33
2023-03-16T19:53:44.986Z,69.38
2023-03-16T19:56:21.881Z,69.60
2023-03-16T19:58:52.555Z,69.56
2023-03-16T20:01:32.583Z,69.76
2023-03-16T20:04:00.466Z,69.86
2023-03-16T20:06:27.751Z,69.87
2023-03-16T20:08:54.944Z,69.75
2023-03-16T20:11:27.871Z,69.91
2023-03-16T20:13:56.310Z,70.06
2023-03-16T20:16:29.383Z,70.13
2023-03-16T20:18:59.687Z,70.05
2023-03-16T20:21:27.824Z,69.87
2023-03-16T20:23:55.050Z,69.92
2023-03-16T20:26:30.951Z,69.94
2023-03-16T20:29:00.074Z,69.78
2023-03-16T20:31:31.899Z,70.27
2023-03-16T20:33:59.251Z,70.26
2023-03-16T20:36:27.361Z,70.01
2023-03-16T20:38:54.477Z,70.05
2023-03-16T20:41:33.025Z,70.30
2023-03-16T20:44:02.067Z,70.20
2023-03-16T20:46:32.685Z,70.15
2023-03-16T20:49:03.797Z,70.41
2023-03-16T20:51:31.653Z,70.35
2023-03-16T20:53:58.883Z,70.72
2023-03-16T20:56:28.756Z,70.67
2023-03-16T20:58:56.392Z,70.83
2023-03-16T21:01:24.867Z,71.02
2023-03-16T21:03:55.764Z,70.99
2023-03-16T21:06:30.190Z,71.33
2023-03-16T21:09:00.130Z,71.32
2023-03-16T21:11:34.604Z,71.58
2023-03-16T21:14:01.968Z,71.37
2023-03-16T21:16:30.559Z,71.69
2023-03-16T21:18:57.703Z,71.98
2023-03-16T21:21:25.223Z,71.88
2023-03-16T21:23:52.451Z,71.61
2023-03-16T21:26:23.262Z,71.95
2023-03-16T21:28:59.738Z,71.83
2023-03-16T21:31:27.366Z,72.05
2023-03-16T21:33:55.712Z,72.15
2023-03-16T21:36:26.851Z,71.77
2023-03-16T21:38:55.403Z,72.20
2023-03-16T21:41:22.782Z,71.81
2023-03-16T21:43:50.363Z,72.15
2023-03-16T21:46:20.153Z,72.15
2023-03-16T21:48:50.191Z,72.07
2023-03-16T21:51:20.624Z,72.36
2023-03-16T21:53:49.529Z,72.25
2023-03-16T21:56:19.871Z,72.65
2023-03-16T21:58:47.696Z,73.00
2023-03-16T22:01:23.797Z,73.06
2023-03-16T22:03:54.043Z,72.82
2023-03-16T22:06:22.798Z,73.36
2023-03-16T22:08:51.494Z,73.15
2023-03-16T22:11:22.929Z,73.48
2023-03-16T22:13:51.529Z,73.62
2023-03-16T22:16:22.362Z,73.90
2023-03-16T22:18:52.275Z,74.59
2023-03-16T22:21:38.352Z,74.21
2023-03-16T22:24:12.923Z,74.03
2023-03-16T22:26:40.154Z,73.97
2023-03-16T22:29:28.469Z,73.93
2023-03-16T22:32:07.706Z,74.08
2023-03-16T22:34:47.109Z,74.51
2023-03-16T22:37:21.416Z,74.56
2023-03-16T22:39:49.890Z,74.86
2023-03-16T22:42:33.876Z,74.70
2023-03-16T22:45:01.265Z,74.82
2023-03-16T22:47:35.762Z,74.91
2023-03-16T22:50:03.808Z,75.15
2023-03-16T22:52:35.820Z,75.24
2023-03-16T22:55:05.970Z,75.17
2023-03-16T22:57:33.361Z,75.41
2023-03-16T23:00:08.236Z,75.73
2023-03-16T23:02:35.452Z,75.97
2023-03-16T23:05:02.578Z,76.08
2023-03-16T23:07:29.855Z,75.95
2023-03-16T23:09:57.139Z,76.09
2023-03-16T23:12:24.362Z,76.48
2023-03-16T23:14:51.961Z,76.46
2023-03-16T23:17:22.505Z,76.62
2023-03-16T23:19:49.825Z,76.78
2023-03-16T23:22:17.256Z,76.58
2023-03-16T23:24:44.376Z,76.72
2023-03-16T23:27:22.854Z,76.78
2023-03-16T23:29:50.159Z,77.06
2023-03-16T23:32:17.662Z,77.02
2023-03-16T23:34:45.166Z,77.26
2023-03-16T23:37:12.888Z,77.17
2023-03-16T23:39:40.221Z,77.59
2023-03-16T23:42:07.805Z,77.20
2023-03-16T23:44:36.013Z,77.33
2023-03-16T23:47:03.315Z,77.37
2023-03-16T23:49:33.320Z,77.50
2023-03-16T23:52:02.002Z,77.49
2023-03-16T23:54:32.152Z,77.78
2023-03-16T23:56:59.549Z,77.83
2023-03-16T23:59:27.982Z,77.96
